createdAt,value
2023-11-15T00:01:43.890Z,7.87
2023-11-15T00:04:12.046Z,2.40
2023-11-15T00:06:41.782Z,3.30
2023-11-15T00:09:10.574Z,6.87
2023-11-15T00:11:38.830Z,11.07
2023-11-15T00:14:08.374Z,5.73
2023-11-15T00:16:36.907Z,5.07
2023-11-15T00:19:08.160Z,4.43
2023-11-15T00:21:36.907Z,4.03
2023-11-15T00:24:08.001Z,2.60
2023-11-15T00:26:36.254Z,2.50
2023-11-15T00:29:04.854Z,2.20
2023-11-15T00:31:33.629Z,2.50
2023-11-15T00:34:01.888Z,2.90
2023-11-15T00:36:30.167Z,2.83
2023-11-15T00:38:58.492Z,2.70
2023-11-15T00:41:28.530Z,2.90
2023-11-15T00:43:56.752Z,2.70
2023-11-15T00:46:24.972Z,4.20
2023-11-15T00:48:53.207Z,3.53
2023-11-15T00:51:21.370Z,2.90
2023-11-15T00:53:49.529Z,2.67
2023-11-15T00:56:18.214Z,3.00
2023-11-15T00:58:47.724Z,3.00
2023-11-15T01:01:15.857Z,3.43
2023-11-15T01:03:47.161Z,2.90
2023-11-15T01:06:17.278Z,3.10
2023-11-15T01:08:45.430Z,2.97
2023-11-15T01:11:14.935Z,3.10
2023-11-15T01:13:43.144Z,3.00
2023-11-15T01:16:12.736Z,3.47
2023-11-15T01:18:40.935Z,3.17
2023-11-15T01:21:11.252Z,2.73
2023-11-15T01:23:39.618Z,3.47
2023-11-15T01:26:07.948Z,3.33
2023-11-15T01:28:36.537Z,3.53
2023-11-15T01:31:04.945Z,3.33
2023-11-15T01:33:34.485Z,3.90
2023-11-15T01:36:02.969Z,3.40
2023-11-15T01:38:31.620Z,3.73
2023-11-15T01:41:00.296Z,3.90
2023-11-15T01:43:28.797Z,3.37
2023-11-15T01:45:57.395Z,4.10
2023-11-15T01:48:26.837Z,3.53
2023-11-15T01:50:56.558Z,4.30
2023-11-15T01:53:25.925Z,4.00
2023-11-15T01:55:54.424Z,3.97
2023-11-15T01:58:26.637Z,4.30
2023-11-15T02:00:55.835Z,4.10
2023-11-15T02:03:24.428Z,4.50
2023-11-15T02:05:54.884Z,4.53
2023-11-15T02:08:24.606Z,4.17
2023-11-15T02:10:52.946Z,4.20
2023-11-15T02:13:28.577Z,3.87
2023-11-15T02:15:57.892Z,4.00
2023-11-15T02:18:26.975Z,4.57
2023-11-15T02:20:55.331Z,5.00
2023-11-15T02:23:25.075Z,5.00
2023-11-15T02:25:54.879Z,4.00
2023-11-15T02:28:23.391Z,4.63
2023-11-15T02:30:51.829Z,5.40
2023-11-15T02:33:20.127Z,4.10
2023-11-15T02:35:48.953Z,4.63
2023-11-15T02:38:17.581Z,4.70
2023-11-15T02:40:46.746Z,4.37
2023-11-15T02:43:16.392Z,4.40
2023-11-15T02:45:44.680Z,4.73
2023-11-15T02:48:13.156Z,4.03
2023-11-15T02:50:41.444Z,4.80
2023-11-15T02:53:09.721Z,4.67
2023-11-15T02:55:39.412Z,4.90
2023-11-15T02:58:07.608Z,4.70
2023-11-15T03:00:38.450Z,4.70
2023-11-15T03:03:06.670Z,5.20
2023-11-15T03:05:35.223Z,4.53
2023-11-15T03:08:03.563Z,4.53
2023-11-15T03:10:33.473Z,5.30
2023-11-15T03:13:02.298Z,5.30
2023-11-15T03:15:30.794Z,5.00
2023-11-15T03:18:00.881Z,4.70
2023-11-15T03:20:29.295Z,5.17
2023-11-15T03:22:57.441Z,4.63
2023-11-15T03:25:25.715Z,5.20
2023-11-15T03:27:54.266Z,4.63
2023-11-15T03:30:22.500Z,4.53
2023-11-15T03:32:50.768Z,3.80
2023-11-15T03:35:23.312Z,4.33
2023-11-15T03:37:51.803Z,4.00
2023-11-15T03:40:20.761Z,3.83
2023-11-15T03:42:49.255Z,4.70
2023-11-15T03:45:17.252Z,3.97
2023-11-15T03:47:45.515Z,4.50
2023-11-15T03:50:13.903Z,3.50
2023-11-15T03:52:43.669Z,3.93
2023-11-15T03:55:11.799Z,4.10
2023-11-15T03:57:40.000Z,4.10
2023-11-15T04:00:11.838Z,4.20
2023-11-15T04:02:40.359Z,3.93
2023-11-15T04:05:10.375Z,3.10
2023-11-15T04:07:40.078Z,3.10
2023-11-15T04:10:11.159Z,3.00
2023-11-15T04:12:39.561Z,2.37
2023-11-15T04:15:10.356Z,2.47
2023-11-15T04:17:38.947Z,2.40
2023-11-15T04:20:08.433Z,2.77
2023-11-15T04:22:36.639Z,2.03
2023-11-15T04:25:05.902Z,2.13
2023-11-15T04:27:35.405Z,1.83
2023-11-15T04:30:03.515Z,2.00
2023-11-15T04:32:31.780Z,2.07
2023-11-15T04:34:59.907Z,1.70
2023-11-15T04:37:28.045Z,1.87
2023-11-15T04:39:56.145Z,1.90
2023-11-15T04:42:25.845Z,2.50
2023-11-15T04:44:55.445Z,1.63
2023-11-15T04:47:23.673Z,2.00
2023-11-15T04:49:51.704Z,2.00
2023-11-15T04:52:19.872Z,1.97
2023-11-15T04:54:48.064Z,2.30
2023-11-15T04:57:17.243Z,2.07
2023-11-15T04:59:45.365Z,1.63
2023-11-15T05:02:15.024Z,1.97
2023-11-15T05:04:43.285Z,2.10
2023-11-15T05:07:12.115Z,2.60
2023-11-15T05:09:40.242Z,1.93
2023-11-15T05:12:08.931Z,2.47
2023-11-15T05:14:37.864Z,2.47
2023-11-15T05:17:06.183Z,2.60
2023-11-15T05:19:38.005Z,2.03
2023-11-15T05:22:06.571Z,2.00
2023-11-15T05:24:34.616Z,2.00
2023-11-15T05:27:03.328Z,1.80
2023-11-15T05:29:32.000Z,1.80
2023-11-15T05:32:00.319Z,1.70
2023-11-15T05:34:29.575Z,1.77
2023-11-15T05:36:59.001Z,1.63
2023-11-15T05:39:27.136Z,1.57
2023-11-15T05:41:55.170Z,1.70
2023-11-15T05:44:23.218Z,1.90
2023-11-15T05:46:51.317Z,1.70
2023-11-15T05:49:19.329Z,2.00
2023-11-15T05:51:47.430Z,2.47
2023-11-15T05:54:17.408Z,2.00
2023-11-15T05:56:47.981Z,1.97
2023-11-15T05:59:16.188Z,2.00
2023-11-15T06:01:44.491Z,2.00
2023-11-15T06:04:12.810Z,1.77
2023-11-15T06:06:41.003Z,2.27
2023-11-15T06:09:14.464Z,2.00
2023-11-15T06:11:44.292Z,2.17
2023-11-15T06:14:15.789Z,2.10
2023-11-15T06:16:44.177Z,2.13
2023-11-15T06:19:12.401Z,2.00
2023-11-15T06:21:44.418Z,2.43
2023-11-15T06:24:14.072Z,2.30
2023-11-15T06:26:45.579Z,2.47
2023-11-15T06:29:13.669Z,2.80
2023-11-15T06:31:43.974Z,2.60
2023-11-15T06:34:12.617Z,2.93
2023-11-15T06:36:44.108Z,2.70
2023-11-15T06:39:13.490Z,3.10
2023-11-15T06:41:43.155Z,2.80
2023-11-15T06:44:12.106Z,2.53
2023-11-15T06:46:40.496Z,2.83
2023-11-15T06:49:12.164Z,2.77
2023-11-15T06:51:40.870Z,3.07
2023-11-15T06:54:09.147Z,3.00
2023-11-15T06:56:37.358Z,2.90
2023-11-15T06:59:07.769Z,3.30
2023-11-15T07:01:36.062Z,3.27
2023-11-15T07:04:04.652Z,3.80
2023-11-15T07:06:33.627Z,3.33
2023-11-15T07:09:03.477Z,3.50
2023-11-15T07:11:32.726Z,3.27
2023-11-15T07:14:01.959Z,3.30
2023-11-15T07:16:31.764Z,3.10
2023-11-15T07:18:59.905Z,3.50
2023-11-15T07:21:28.663Z,3.23
2023-11-15T07:23:59.493Z,3.60
2023-11-15T07:26:27.747Z,3.20
2023-11-15T07:28:57.934Z,3.60
2023-11-15T07:31:25.960Z,3.87
2023-11-15T07:33:57.609Z,3.60
2023-11-15T07:36:27.372Z,3.27
2023-11-15T07:38:55.716Z,3.60
2023-11-15T07:41:25.555Z,3.60
2023-11-15T07:43:55.308Z,3.57
2023-11-15T07:46:25.290Z,3.40
2023-11-15T07:48:55.180Z,3.80
2023-11-15T07:51:23.252Z,3.43
2023-11-15T07:53:51.378Z,3.33
2023-11-15T07:56:20.364Z,3.70
2023-11-15T07:58:50.708Z,3.53
2023-11-15T08:01:19.259Z,3.50
2023-11-15T08:03:47.540Z,3.37
2023-11-15T08:06:17.761Z,3.03
2023-11-15T08:08:46.023Z,3.00
2023-11-15T08:11:14.894Z,4.40
2023-11-15T08:13:43.756Z,3.33
2023-11-15T08:16:13.891Z,3.57
2023-11-15T08:18:43.446Z,3.23
2023-11-15T08:21:12.041Z,3.97
2023-11-15T08:23:41.849Z,3.47
2023-11-15T08:26:09.930Z,4.03
2023-11-15T08:28:38.014Z,3.70
2023-11-15T08:31:06.744Z,4.17
2023-11-15T08:33:35.168Z,3.60
2023-11-15T08:36:03.508Z,4.03
2023-11-15T08:38:31.600Z,3.60
2023-11-15T08:41:01.272Z,3.77
2023-11-15T08:43:29.579Z,3.70
2023-11-15T08:45:58.706Z,3.87
2023-11-15T08:48:27.133Z,3.83
2023-11-15T08:50:56.442Z,4.10
2023-11-15T08:53:26.522Z,3.30
2023-11-15T08:55:54.785Z,3.47
2023-11-15T08:58:28.886Z,3.17
2023-11-15T09:01:02.401Z,3.30
2023-11-15T09:03:30.705Z,2.90
2023-11-15T09:06:01.053Z,3.33
2023-11-15T09:08:32.190Z,2.90
2023-11-15T09:11:03.221Z,3.10
2023-11-15T09:13:34.228Z,3.10
2023-11-15T09:16:02.859Z,3.30
2023-11-15T09:18:32.437Z,4.23
2023-11-15T09:21:02.133Z,3.03
2023-11-15T09:23:31.148Z,3.60
2023-11-15T09:26:01.349Z,2.80
2023-11-15T09:28:30.314Z,3.30
2023-11-15T09:30:59.783Z,3.20
2023-11-15T09:33:30.965Z,3.40
2023-11-15T09:36:01.603Z,3.20
2023-11-15T09:38:30.266Z,3.17
2023-11-15T09:41:00.996Z,3.07
2023-11-15T09:43:29.977Z,2.80
2023-11-15T09:46:03.531Z,2.73
2023-11-15T09:48:34.894Z,2.90
2023-11-15T09:51:05.606Z,3.57
2023-11-15T09:53:37.134Z,4.93
2023-11-15T09:56:08.319Z,3.07
2023-11-15T09:58:37.907Z,4.03
2023-11-15T10:01:07.965Z,8.47
2023-11-15T10:03:42.335Z,3.60
2023-11-15T10:06:11.185Z,3.00
2023-11-15T10:08:52.622Z,2.80
2023-11-15T10:11:21.541Z,2.67
2023-11-15T10:13:52.580Z,4.87
2023-11-15T10:16:31.275Z,3.50
2023-11-15T10:19:01.552Z,5.60
2023-11-15T10:21:30.445Z,4.03
2023-11-15T10:24:14.046Z,2.83
2023-11-15T10:26:42.257Z,4.53
2023-11-15T10:29:16.231Z,8.30
2023-11-15T10:31:54.245Z,5.07
2023-11-15T10:37:06.369Z,6.00
2023-11-15T10:39:41.746Z,2.53
2023-11-15T10:42:14.285Z,3.53
2023-11-15T10:44:48.339Z,2.50
2023-11-15T10:47:23.571Z,3.60
2023-11-15T10:49:56.105Z,2.43
2023-11-15T10:52:25.577Z,2.60
2023-11-15T10:54:58.251Z,3.23
2023-11-15T10:57:28.752Z,3.20
2023-11-15T10:59:58.609Z,1.83
2023-11-15T11:02:32.896Z,2.37
2023-11-15T11:05:02.018Z,2.90
2023-11-15T11:07:41.519Z,2.30
2023-11-15T11:10:18.036Z,2.00
2023-11-15T11:12:46.291Z,1.80
2023-11-15T11:15:29.581Z,2.43
2023-11-15T11:18:06.450Z,1.97
2023-11-15T11:20:36.984Z,3.17
2023-11-15T11:23:11.556Z,2.03
2023-11-15T11:25:41.166Z,2.70
2023-11-15T11:28:13.112Z,4.47
2023-11-15T11:30:42.005Z,3.13
2023-11-15T11:33:16.790Z,1.77
2023-11-15T11:35:47.273Z,1.70
2023-11-15T11:38:43.783Z,1.70
2023-11-15T11:41:14.843Z,1.60
2023-11-15T11:43:43.222Z,1.30
2023-11-15T11:46:19.055Z,1.60
2023-11-15T11:48:48.683Z,1.50
2023-11-15T11:51:17.366Z,1.70
2023-11-15T11:53:47.942Z,1.47
2023-11-15T11:56:16.203Z,1.60
2023-11-15T11:58:45.366Z,1.60
2023-11-15T12:01:14.591Z,1.80
2023-11-15T12:03:50.236Z,1.70
2023-11-15T12:06:19.766Z,1.70
2023-11-15T12:08:53.116Z,1.97
2023-11-15T12:11:23.917Z,1.73
2023-11-15T12:13:54.030Z,1.60
2023-11-15T12:16:23.845Z,1.77
2023-11-15T12:19:09.383Z,1.83
2023-11-15T12:21:40.418Z,1.90
2023-11-15T12:24:11.475Z,1.70
2023-11-15T12:26:47.744Z,1.70
2023-11-15T12:29:24.492Z,2.00
2023-11-15T12:31:54.550Z,1.80
2023-11-15T12:34:25.421Z,1.70
2023-11-15T12:36:54.564Z,1.67
2023-11-15T12:39:23.981Z,1.80
2023-11-15T12:41:54.497Z,1.80
2023-11-15T12:44:23.281Z,1.70
2023-11-15T12:46:59.336Z,1.70
2023-11-15T12:49:29.161Z,1.60
2023-11-15T12:51:57.329Z,1.83
2023-11-15T12:54:25.478Z,1.73
2023-11-15T12:57:08.749Z,2.13
2023-11-15T12:59:39.465Z,1.87
2023-11-15T13:02:08.124Z,1.83
2023-11-15T13:04:52.675Z,1.50
2023-11-15T13:07:20.971Z,1.97
2023-11-15T13:09:49.617Z,1.70
2023-11-15T13:12:28.232Z,1.50
2023-11-15T13:14:57.033Z,1.50
2023-11-15T13:17:28.245Z,2.10
2023-11-15T13:20:03.520Z,2.10
2023-11-15T13:22:33.788Z,1.60
2023-11-15T13:25:02.282Z,1.50
2023-11-15T13:27:30.424Z,1.80
2023-11-15T13:29:59.099Z,1.80
2023-11-15T13:32:27.575Z,1.70
2023-11-15T13:34:57.206Z,1.40
2023-11-15T13:37:25.953Z,1.50
2023-11-15T13:39:54.147Z,1.60
2023-11-15T13:42:22.333Z,1.43
2023-11-15T13:44:50.661Z,1.50
2023-11-15T13:47:19.394Z,1.67
2023-11-15T13:49:48.290Z,1.37
2023-11-15T13:52:18.001Z,1.60
2023-11-15T13:54:47.578Z,1.47
2023-11-15T13:57:16.230Z,1.50
2023-11-15T13:59:44.529Z,1.50
2023-11-15T14:02:13.080Z,1.37
2023-11-15T14:04:41.494Z,1.53
2023-11-15T14:07:09.649Z,1.20
2023-11-15T14:09:39.893Z,1.40
2023-11-15T14:12:08.868Z,1.50
2023-11-15T14:14:38.889Z,1.47
2023-11-15T14:17:08.928Z,1.40
2023-11-15T14:19:38.203Z,1.20
2023-11-15T14:22:07.287Z,1.30
2023-11-15T14:24:38.489Z,0.90
2023-11-15T14:27:07.166Z,1.13
2023-11-15T14:29:35.405Z,1.07
2023-11-15T14:32:04.169Z,1.20
2023-11-15T14:34:32.649Z,1.30
2023-11-15T14:37:01.283Z,1.03
2023-11-15T14:39:32.432Z,1.17
2023-11-15T14:42:04.466Z,1.20
2023-11-15T14:44:34.038Z,1.20
2023-11-15T14:47:02.236Z,1.57
2023-11-15T14:49:30.475Z,2.30
2023-11-15T14:52:09.060Z,2.40
2023-11-15T14:54:41.896Z,1.70
2023-11-15T14:57:11.947Z,1.40
2023-11-15T14:59:44.188Z,1.73
2023-11-15T15:02:13.176Z,1.80
2023-11-15T15:04:44.903Z,1.80
2023-11-15T15:07:14.757Z,1.53
2023-11-15T15:09:43.189Z,25.87
2023-11-15T15:12:14.032Z,24.97
2023-11-15T15:14:42.688Z,12.03
2023-11-15T15:17:21.268Z,7.93
2023-11-15T15:19:54.167Z,4.70
2023-11-15T15:22:23.330Z,2.90
2023-11-15T15:24:51.664Z,2.57
2023-11-15T15:27:22.732Z,2.10
2023-11-15T15:29:51.024Z,2.43
2023-11-15T15:32:19.233Z,2.40
2023-11-15T15:34:47.353Z,2.60
2023-11-15T15:37:16.512Z,2.80
2023-11-15T15:39:44.741Z,3.00
2023-11-15T15:42:13.229Z,2.40
2023-11-15T15:44:42.952Z,2.63
2023-11-15T15:47:11.086Z,2.40
2023-11-15T15:49:46.036Z,2.20
2023-11-15T15:52:14.477Z,2.00
2023-11-15T15:54:43.684Z,1.93
2023-11-15T15:57:12.632Z,2.10
2023-11-15T15:59:43.702Z,2.20
2023-11-15T16:02:12.324Z,2.20
2023-11-15T16:04:42.806Z,1.90
2023-11-15T16:07:11.727Z,2.10
2023-11-15T16:09:45.188Z,2.00
2023-11-15T16:12:13.437Z,2.33
2023-11-15T16:14:43.037Z,2.17
2023-11-15T16:17:11.707Z,2.13
2023-11-15T16:19:40.269Z,2.20
2023-11-15T16:22:08.462Z,2.20
2023-11-15T16:24:36.687Z,2.07
2023-11-15T16:27:05.376Z,1.97
2023-11-15T16:29:36.685Z,1.97
2023-11-15T16:32:08.277Z,1.83
2023-11-15T16:34:36.628Z,1.93
2023-11-15T16:37:05.115Z,1.90
2023-11-15T16:39:33.664Z,2.10
2023-11-15T16:42:02.942Z,1.80
2023-11-15T16:44:34.599Z,1.70
2023-11-15T16:47:02.780Z,2.37
2023-11-15T16:49:32.256Z,2.10
2023-11-15T16:52:02.313Z,2.30
2023-11-15T16:54:32.629Z,2.20
2023-11-15T16:57:03.210Z,2.03
2023-11-15T16:59:31.481Z,2.40
2023-11-15T17:01:59.760Z,1.70
2023-11-15T17:04:28.363Z,2.33
2023-11-15T17:06:59.621Z,1.97
2023-11-15T17:09:29.489Z,1.70
2023-11-15T17:11:57.718Z,1.77
2023-11-15T17:14:25.875Z,1.87
2023-11-15T17:16:53.950Z,1.90
2023-11-15T17:19:25.946Z,1.97
2023-11-15T17:21:55.546Z,2.60
2023-11-15T17:24:26.423Z,2.17
2023-11-15T17:26:54.510Z,2.53
2023-11-15T17:29:22.762Z,3.23
2023-11-15T17:31:51.045Z,3.40
2023-11-15T17:34:21.521Z,3.57
2023-11-15T17:36:49.936Z,3.57
2023-11-15T17:39:18.135Z,3.33
2023-11-15T17:41:47.887Z,2.97
2023-11-15T17:44:16.546Z,2.80
2023-11-15T17:46:44.888Z,3.37
2023-11-15T17:49:13.895Z,2.53
2023-11-15T17:51:44.530Z,3.40
2023-11-15T17:54:13.979Z,3.20
2023-11-15T17:56:42.257Z,3.00
2023-11-15T17:59:12.480Z,3.23
2023-11-15T18:01:40.729Z,3.10
2023-11-15T18:04:10.913Z,3.10
2023-11-15T18:06:39.918Z,3.10
2023-11-15T18:09:09.717Z,3.20
2023-11-15T18:11:37.839Z,4.23
2023-11-15T18:14:07.188Z,3.93
2023-11-15T18:16:37.159Z,4.10
2023-11-15T18:19:09.094Z,4.00
2023-11-15T18:21:36.459Z,4.03
2023-11-15T18:24:04.794Z,4.10
2023-11-15T18:26:35.669Z,4.33
2023-11-15T18:29:03.944Z,4.50
2023-11-15T18:31:33.300Z,4.50
2023-11-15T18:34:02.994Z,4.47
2023-11-15T18:36:31.217Z,4.33
2023-11-15T18:38:59.306Z,5.10
2023-11-15T18:41:27.742Z,4.67
2023-11-15T18:43:57.934Z,4.37
2023-11-15T18:46:27.490Z,4.50
2023-11-15T18:48:55.595Z,4.30
2023-11-15T18:51:28.751Z,4.23
2023-11-15T18:53:56.937Z,5.10
2023-11-15T18:56:25.115Z,9.03
2023-11-15T18:58:54.500Z,5.80
2023-11-15T19:01:22.849Z,6.43
2023-11-15T19:03:50.994Z,4.90
2023-11-15T19:06:19.106Z,4.97
2023-11-15T19:08:48.531Z,4.77
2023-11-15T19:11:16.502Z,4.83
2023-11-15T19:13:47.747Z,4.80
2023-11-15T19:16:19.632Z,5.13
2023-11-15T19:18:47.806Z,5.00
2023-11-15T19:21:16.580Z,4.70
2023-11-15T19:23:44.833Z,5.10
2023-11-15T19:26:15.428Z,4.70
2023-11-15T19:28:43.677Z,4.93
2023-11-15T19:31:11.704Z,5.97
2023-11-15T19:33:40.657Z,5.63
2023-11-15T19:36:09.481Z,5.40
2023-11-15T19:38:38.078Z,5.87
2023-11-15T19:41:07.814Z,5.17
2023-11-15T19:43:37.909Z,5.10
2023-11-15T19:46:07.011Z,4.83
2023-11-15T19:48:35.754Z,5.23
2023-11-15T19:51:03.818Z,4.77
2023-11-15T19:53:31.859Z,5.83
2023-11-15T19:55:59.819Z,4.90
2023-11-15T19:58:28.141Z,4.77
2023-11-15T20:00:58.690Z,5.07
2023-11-15T20:03:26.848Z,5.20
2023-11-15T20:05:54.910Z,4.90
2023-11-15T20:08:22.895Z,5.80
2023-11-15T20:10:50.931Z,5.60
2023-11-15T20:13:19.661Z,5.43
2023-11-15T20:15:48.539Z,5.20
2023-11-15T20:18:17.910Z,4.27
2023-11-15T20:20:46.001Z,4.33
2023-11-15T20:23:16.055Z,3.97
2023-11-15T20:25:44.086Z,4.50
2023-11-15T20:28:12.762Z,4.70
2023-11-15T20:30:41.641Z,4.33
2023-11-15T20:33:10.493Z,4.80
2023-11-15T20:35:39.880Z,5.10
2023-11-15T20:38:08.019Z,4.40
2023-11-15T20:40:36.057Z,4.50
2023-11-15T20:43:04.261Z,5.13
2023-11-15T20:45:32.302Z,5.80
2023-11-15T20:48:02.592Z,5.23
2023-11-15T20:50:30.594Z,5.13
2023-11-15T20:53:01.241Z,5.00
2023-11-15T20:55:29.272Z,4.53
2023-11-15T20:58:02.768Z,3.63
2023-11-15T21:00:34.908Z,4.20
2023-11-15T21:03:05.696Z,4.20
2023-11-15T21:05:34.089Z,4.43
2023-11-15T21:08:04.830Z,4.47
2023-11-15T21:10:35.342Z,4.63
2023-11-15T21:13:04.398Z,4.30
2023-11-15T21:15:32.454Z,4.43
2023-11-15T21:18:01.303Z,4.97
2023-11-15T21:20:29.405Z,4.70
2023-11-15T21:22:57.382Z,26.27
2023-11-15T21:25:27.033Z,6.33
2023-11-15T21:27:55.765Z,4.03
2023-11-15T21:30:24.206Z,4.47
2023-11-15T21:32:53.993Z,4.40
2023-11-15T21:35:22.148Z,4.00
2023-11-15T21:37:51.130Z,4.47
2023-11-15T21:40:20.117Z,5.00
2023-11-15T21:42:50.530Z,24.03
2023-11-15T21:45:20.794Z,22.00
2023-11-15T21:47:51.718Z,46.67
2023-11-15T21:50:21.731Z,34.43
2023-11-15T21:52:50.199Z,22.47
2023-11-15T21:55:18.402Z,5.20
2023-11-15T21:57:46.963Z,5.33
2023-11-15T22:00:21.977Z,5.30
2023-11-15T22:02:50.788Z,5.70
2023-11-15T22:05:19.108Z,6.50
2023-11-15T22:07:47.719Z,5.93
2023-11-15T22:10:15.891Z,6.13
2023-11-15T22:12:44.138Z,6.63
2023-11-15T22:15:12.425Z,10.00
2023-11-15T22:17:42.115Z,7.07
2023-11-15T22:20:12.136Z,6.57
2023-11-15T22:22:40.527Z,7.03
2023-11-15T22:25:08.994Z,6.90
2023-11-15T22:27:37.076Z,8.23
2023-11-15T22:30:07.867Z,8.40
2023-11-15T22:32:36.103Z,8.00
2023-11-15T22:35:06.236Z,8.10
2023-11-15T22:37:35.017Z,8.13
2023-11-15T22:40:03.327Z,13.20
2023-11-15T22:42:31.335Z,9.40
2023-11-15T22:44:59.573Z,9.20
2023-11-15T22:47:27.706Z,10.10
2023-11-15T22:49:55.741Z,10.10
2023-11-15T22:52:25.045Z,10.83
2023-11-15T22:54:53.049Z,10.37
2023-11-15T22:57:22.271Z,10.87
2023-11-15T22:59:52.594Z,12.37
2023-11-15T23:02:21.214Z,10.80
2023-11-15T23:04:49.614Z,11.87
2023-11-15T23:07:21.353Z,11.40
2023-11-15T23:09:51.528Z,11.57
2023-11-15T23:12:19.578Z,15.73
2023-11-15T23:14:49.058Z,10.90
2023-11-15T23:17:17.465Z,11.83
2023-11-15T23:19:46.155Z,11.77
2023-11-15T23:22:15.430Z,11.97
2023-11-15T23:24:43.878Z,11.27
2023-11-15T23:27:13.369Z,11.30
2023-11-15T23:29:41.455Z,12.10
2023-11-15T23:32:09.576Z,11.83
2023-11-15T23:34:37.447Z,11.90
2023-11-15T23:37:05.838Z,13.10
2023-11-15T23:39:34.501Z,12.27
2023-11-15T23:42:02.719Z,11.80
2023-11-15T23:44:33.093Z,12.17
2023-11-15T23:47:01.152Z,12.70
2023-11-15T23:49:30.392Z,12.57
2023-11-15T23:51:58.450Z,12.07
2023-11-15T23:54:26.600Z,11.90
2023-11-15T23:56:56.196Z,11.17
2023-11-15T23:59:24.266Z,12.20
